createdAt,value
2023-05-05T00:02:19.019Z,15.69
2023-05-05T00:04:49.575Z,15.59
2023-05-05T00:07:19.855Z,15.55
2023-05-05T00:09:50.335Z,15.48
2023-05-05T00:12:20.865Z,15.41
2023-05-05T00:14:53.849Z,15.37
2023-05-05T00:17:26.586Z,15.25
2023-05-05T00:19:57.190Z,15.15
2023-05-05T00:22:27.477Z,15.04
2023-05-05T00:24:58.078Z,14.87
2023-05-05T00:27:28.340Z,14.74
2023-05-05T00:30:01.477Z,14.60
2023-05-05T00:32:32.994Z,14.45
2023-05-05T00:35:03.500Z,14.36
2023-05-05T00:37:33.738Z,14.31
2023-05-05T00:40:12.054Z,14.28
2023-05-05T00:42:44.418Z,14.21
2023-05-05T00:45:19.051Z,14.16
2023-05-05T00:47:51.616Z,14.10
2023-05-05T00:50:26.669Z,14.04
2023-05-05T00:52:59.361Z,13.90
2023-05-05T00:55:34.447Z,13.78
2023-05-05T00:58:05.941Z,13.69
2023-05-05T01:00:38.896Z,13.58
2023-05-05T01:03:09.432Z,13.48
2023-05-05T01:05:51.623Z,13.38
2023-05-05T01:08:37.892Z,13.27
2023-05-05T01:11:17.406Z,13.23
2023-05-05T01:13:55.658Z,13.15
2023-05-05T01:16:32.761Z,13.08
2023-05-05T01:19:23.092Z,13.03
2023-05-05T01:22:00.817Z,12.93
2023-05-05T01:24:54.599Z,12.86
2023-05-05T01:28:08.914Z,12.81
2023-05-05T01:31:07.620Z,12.75
2023-05-05T01:33:47.591Z,12.68
2023-05-05T01:36:25.545Z,12.60
2023-05-05T01:39:03.756Z,12.56
2023-05-05T01:41:41.507Z,12.52
2023-05-05T01:44:14.630Z,12.47
2023-05-05T01:46:44.928Z,12.42
2023-05-05T01:49:21.207Z,12.38
2023-05-05T01:51:52.958Z,12.33
2023-05-05T01:54:24.441Z,12.24
2023-05-05T01:56:57.590Z,12.26
2023-05-05T01:59:29.396Z,12.22
2023-05-05T02:02:02.331Z,12.18
2023-05-05T02:04:39.255Z,12.15
2023-05-05T02:07:13.831Z,12.12
2023-05-05T02:09:47.880Z,12.11
2023-05-05T02:12:21.080Z,12.08
2023-05-05T02:14:54.161Z,12.16
2023-05-05T02:17:26.339Z,12.16
2023-05-05T02:20:07.709Z,12.16
2023-05-05T02:22:38.422Z,12.12
2023-05-05T02:25:10.312Z,12.06
2023-05-05T02:27:44.890Z,12.00
2023-05-05T02:30:18.924Z,11.92
2023-05-05T02:32:51.739Z,11.86
2023-05-05T02:35:27.407Z,11.82
2023-05-05T02:38:02.944Z,11.74
2023-05-05T02:40:37.776Z,11.69
2023-05-05T02:43:14.349Z,11.65
2023-05-05T02:45:45.089Z,11.64
2023-05-05T02:48:16.212Z,11.61
2023-05-05T02:50:53.659Z,11.57
2023-05-05T02:53:29.175Z,11.64
2023-05-05T02:56:08.071Z,11.56
2023-05-05T02:58:46.378Z,11.53
2023-05-05T03:01:29.940Z,11.51
2023-05-05T03:04:07.862Z,11.50
2023-05-05T03:06:45.590Z,11.37
2023-05-05T03:09:24.559Z,11.31
2023-05-05T03:12:02.590Z,11.33
2023-05-05T03:14:38.727Z,11.32
2023-05-05T03:17:12.780Z,11.29
2023-05-05T03:19:45.419Z,11.31
2023-05-05T03:22:31.807Z,11.33
2023-05-05T03:25:02.384Z,11.36
2023-05-05T03:27:35.727Z,11.42
2023-05-05T03:30:07.600Z,11.46
2023-05-05T03:32:38.397Z,11.42
2023-05-05T03:35:12.192Z,11.52
2023-05-05T03:37:45.082Z,11.59
2023-05-05T03:40:16.290Z,11.64
2023-05-05T03:42:46.715Z,11.62
2023-05-05T03:45:17.352Z,11.66
2023-05-05T03:47:49.828Z,11.67
2023-05-05T03:50:20.243Z,11.68
2023-05-05T03:52:53.448Z,11.67
2023-05-05T03:55:25.094Z,11.69
2023-05-05T03:57:58.288Z,11.62
2023-05-05T04:00:28.588Z,11.72
2023-05-05T04:02:59.195Z,11.76
2023-05-05T04:05:29.525Z,11.85
2023-05-05T04:08:03.527Z,11.86
2023-05-05T04:10:34.338Z,11.98
2023-05-05T04:13:05.151Z,11.99
2023-05-05T04:15:38.290Z,12.10
2023-05-05T04:18:08.707Z,12.25
2023-05-05T04:20:40.745Z,12.20
2023-05-05T04:23:13.625Z,12.35
2023-05-05T04:25:44.291Z,12.44
2023-05-05T04:28:14.929Z,12.50
2023-05-05T04:30:47.554Z,12.49
2023-05-05T04:33:18.626Z,12.64
2023-05-05T04:35:48.845Z,12.85
2023-05-05T04:38:22.406Z,13.09
2023-05-05T04:40:52.764Z,13.07
2023-05-05T04:43:23.098Z,13.65
2023-05-05T04:45:59.384Z,15.05
2023-05-05T04:48:31.200Z,16.11
2023-05-05T04:51:07.084Z,17.03
2023-05-05T04:53:39.977Z,17.95
2023-05-05T04:56:10.466Z,17.99
2023-05-05T04:58:42.987Z,19.02
2023-05-05T05:01:13.537Z,19.80
2023-05-05T05:03:51.941Z,20.52
2023-05-05T05:06:24.779Z,21.10
2023-05-05T05:08:58.071Z,21.45
2023-05-05T05:11:28.418Z,21.92
2023-05-05T05:13:58.685Z,22.03
2023-05-05T05:16:32.321Z,21.59
2023-05-05T05:19:02.876Z,21.68
2023-05-05T05:21:33.084Z,22.38
2023-05-05T05:24:11.803Z,22.89
2023-05-05T05:26:42.603Z,23.33
2023-05-05T05:29:13.131Z,23.63
2023-05-05T05:31:43.558Z,23.79
2023-05-05T05:34:14.042Z,22.60
2023-05-05T05:36:44.249Z,22.84
2023-05-05T05:39:17.385Z,22.95
2023-05-05T05:41:47.715Z,23.05
2023-05-05T05:44:21.017Z,23.13
2023-05-05T05:46:56.512Z,23.23
2023-05-05T05:49:33.910Z,23.40
2023-05-05T05:52:07.246Z,23.48
2023-05-05T05:54:40.434Z,23.35
2023-05-05T05:57:10.737Z,23.21
2023-05-05T05:59:41.014Z,22.98
2023-05-05T06:02:11.281Z,22.94
2023-05-05T06:04:42.768Z,22.84
2023-05-05T06:07:18.675Z,23.16
2023-05-05T06:09:51.685Z,23.34
2023-05-05T06:12:22.000Z,23.22
2023-05-05T06:14:52.234Z,23.65
2023-05-05T06:17:23.696Z,23.63
2023-05-05T06:19:54.578Z,23.47
2023-05-05T06:22:25.077Z,23.06
2023-05-05T06:25:01.041Z,22.73
2023-05-05T06:27:31.444Z,22.31
2023-05-05T06:30:01.644Z,21.77
2023-05-05T06:32:31.962Z,21.74
2023-05-05T06:35:02.612Z,21.84
2023-05-05T06:37:35.056Z,22.03
2023-05-05T06:40:10.729Z,22.05
2023-05-05T06:42:41.632Z,22.14
2023-05-05T06:45:13.703Z,22.70
2023-05-05T06:47:46.340Z,22.71
2023-05-05T06:50:26.695Z,22.78
2023-05-05T06:52:57.032Z,23.08
2023-05-05T06:55:30.258Z,23.74
2023-05-05T06:58:01.154Z,24.03
2023-05-05T07:00:31.549Z,23.69
2023-05-05T07:03:07.324Z,23.63
2023-05-05T07:05:38.047Z,23.87
2023-05-05T07:08:12.072Z,23.50
2023-05-05T07:10:45.181Z,23.65
2023-05-05T07:13:15.585Z,23.33
2023-05-05T07:15:46.833Z,23.47
2023-05-05T07:18:17.362Z,23.61
2023-05-05T07:20:47.758Z,23.23
2023-05-05T07:23:20.436Z,23.29
2023-05-05T07:25:53.627Z,23.55
2023-05-05T07:28:24.932Z,23.39
2023-05-05T07:30:58.049Z,23.31
2023-05-05T07:33:28.569Z,23.37
2023-05-05T07:36:04.763Z,23.19
2023-05-05T07:38:35.378Z,23.80
2023-05-05T07:41:09.205Z,24.25
2023-05-05T07:43:42.350Z,24.33
2023-05-05T07:46:14.494Z,24.73
2023-05-05T07:48:47.649Z,24.87
2023-05-05T07:51:17.933Z,24.83
2023-05-05T07:53:50.390Z,25.04
2023-05-05T07:56:25.961Z,24.85
2023-05-05T07:58:56.420Z,24.85
2023-05-05T08:01:26.834Z,24.73
2023-05-05T08:03:59.978Z,24.45
2023-05-05T08:09:03.690Z,24.82
2023-05-05T08:11:38.688Z,25.09
2023-05-05T08:14:09.914Z,25.08
2023-05-05T08:16:40.205Z,25.15
2023-05-05T08:19:21.518Z,25.00
2023-05-05T08:22:01.559Z,24.88
2023-05-05T08:24:35.170Z,25.20
2023-05-05T08:27:14.160Z,25.65
2023-05-05T08:29:44.536Z,25.65
2023-05-05T08:32:16.463Z,25.88
2023-05-05T08:34:47.003Z,25.41
2023-05-05T08:37:19.124Z,25.29
2023-05-05T08:39:52.594Z,25.29
2023-05-05T08:42:36.280Z,25.62
2023-05-05T08:45:14.653Z,25.54
2023-05-05T08:47:45.316Z,25.75
2023-05-05T08:50:22.201Z,25.81
2023-05-05T08:52:56.788Z,25.68
2023-05-05T08:55:28.634Z,25.60
2023-05-05T08:58:03.717Z,25.69
2023-05-05T09:00:34.428Z,25.65
2023-05-05T09:03:09.825Z,25.96
2023-05-05T09:05:42.120Z,26.56
2023-05-05T09:08:14.390Z,25.88
2023-05-05T09:10:45.452Z,25.70
2023-05-05T09:13:18.529Z,25.65
2023-05-05T09:15:51.741Z,25.81
2023-05-05T09:18:22.238Z,25.81
2023-05-05T09:20:52.505Z,25.92
2023-05-05T09:23:23.966Z,26.08
2023-05-05T09:26:11.618Z,25.51
2023-05-05T09:28:55.751Z,25.17
2023-05-05T09:31:31.155Z,25.57
2023-05-05T09:34:02.133Z,25.76
2023-05-05T09:36:48.089Z,26.21
2023-05-05T09:39:21.674Z,26.00
2023-05-05T09:41:52.362Z,26.29
2023-05-05T09:44:36.856Z,25.81
2023-05-05T09:47:21.946Z,25.91
2023-05-05T09:50:02.475Z,26.23
2023-05-05T09:52:34.552Z,26.45
2023-05-05T09:55:12.281Z,26.10
2023-05-05T09:57:42.737Z,26.05
2023-05-05T10:00:24.769Z,25.52
2023-05-05T10:02:55.192Z,25.09
2023-05-05T10:05:29.478Z,25.44
2023-05-05T10:08:15.464Z,25.74
2023-05-05T10:10:53.781Z,25.80
2023-05-05T10:13:25.319Z,25.72
2023-05-05T10:16:00.377Z,25.99
2023-05-05T10:18:31.999Z,26.01
2023-05-05T10:21:03.948Z,25.85
2023-05-05T10:23:42.224Z,25.46
2023-05-05T10:26:14.851Z,25.71
2023-05-05T10:28:48.853Z,26.09
2023-05-05T10:31:32.377Z,26.05
2023-05-05T10:34:07.073Z,25.58
2023-05-05T10:36:38.031Z,25.69
2023-05-05T10:39:11.010Z,25.84
2023-05-05T10:41:41.718Z,26.19
2023-05-05T10:44:13.133Z,26.27
2023-05-05T10:46:46.658Z,26.28
2023-05-05T10:49:21.342Z,25.57
2023-05-05T10:52:08.107Z,25.88
2023-05-05T10:54:46.324Z,25.99
2023-05-05T10:57:19.469Z,26.27
2023-05-05T10:59:49.731Z,25.58
2023-05-05T11:02:28.322Z,25.11
2023-05-05T11:05:18.346Z,25.03
2023-05-05T11:07:50.257Z,25.12
2023-05-05T11:10:23.291Z,25.45
2023-05-05T11:13:21.755Z,25.60
2023-05-05T11:15:54.425Z,25.70
2023-05-05T11:18:36.931Z,25.92
2023-05-05T11:21:15.874Z,25.70
2023-05-05T11:23:53.618Z,25.82
2023-05-05T11:26:54.494Z,26.04
2023-05-05T11:29:24.827Z,25.98
2023-05-05T11:32:16.450Z,26.43
2023-05-05T11:34:55.397Z,26.27
2023-05-05T11:37:26.881Z,25.87
2023-05-05T11:40:07.278Z,26.12
2023-05-05T11:42:37.955Z,25.82
2023-05-05T11:45:25.081Z,26.28
2023-05-05T11:47:55.581Z,25.90
2023-05-05T11:50:28.577Z,26.38
2023-05-05T11:52:59.227Z,26.40
2023-05-05T11:55:30.858Z,26.17
2023-05-05T11:58:01.211Z,26.07
2023-05-05T12:00:37.024Z,25.74
2023-05-05T12:03:09.094Z,25.85
2023-05-05T12:05:45.237Z,26.06
2023-05-05T12:08:17.827Z,25.46
2023-05-05T12:10:48.193Z,25.31
2023-05-05T12:13:22.227Z,25.49
2023-05-05T12:15:52.519Z,25.38
2023-05-05T12:18:23.148Z,25.25
2023-05-05T12:20:59.396Z,25.35
2023-05-05T12:23:30.415Z,25.49
2023-05-05T12:26:00.672Z,25.53
2023-05-05T12:28:46.819Z,25.83
2023-05-05T12:31:17.202Z,25.42
2023-05-05T12:33:48.325Z,25.20
2023-05-05T12:36:21.563Z,24.97
2023-05-05T12:38:52.786Z,24.76
2023-05-05T12:41:23.606Z,24.93
2023-05-05T12:43:58.809Z,25.08
2023-05-05T12:46:29.873Z,25.56
2023-05-05T12:49:04.989Z,25.73
2023-05-05T12:51:39.555Z,25.85
2023-05-05T12:54:11.107Z,25.83
2023-05-05T12:56:42.810Z,25.66
2023-05-05T12:59:14.809Z,25.59
2023-05-05T13:01:53.035Z,25.62
2023-05-05T13:04:24.752Z,25.42
2023-05-05T13:07:11.922Z,25.64
2023-05-05T13:09:42.777Z,25.58
2023-05-05T13:12:14.738Z,25.54
2023-05-05T13:14:48.138Z,25.67
2023-05-05T13:17:18.470Z,25.73
2023-05-05T13:19:48.995Z,26.08
2023-05-05T13:22:26.431Z,25.98
2023-05-05T13:25:00.381Z,26.03
2023-05-05T13:27:30.741Z,26.06
2023-05-05T13:30:04.484Z,25.96
2023-05-05T13:32:35.623Z,26.21
2023-05-05T13:35:06.449Z,26.10
2023-05-05T13:37:39.370Z,26.02
2023-05-05T13:40:11.545Z,26.37
2023-05-05T13:42:41.891Z,26.38
2023-05-05T13:45:14.468Z,26.58
2023-05-05T13:47:45.397Z,26.70
2023-05-05T13:50:15.740Z,26.55
2023-05-05T13:52:48.555Z,26.53
2023-05-05T13:55:19.052Z,26.42
2023-05-05T13:57:49.274Z,26.29
2023-05-05T14:00:21.338Z,26.32
2023-05-05T14:02:51.805Z,26.08
2023-05-05T14:05:22.463Z,26.40
2023-05-05T14:07:55.596Z,26.47
2023-05-05T14:10:26.780Z,26.34
2023-05-05T14:12:57.340Z,26.23
2023-05-05T14:15:28.272Z,26.50
2023-05-05T14:17:59.910Z,26.48
2023-05-05T14:20:30.482Z,26.49
2023-05-05T14:23:03.389Z,26.52
2023-05-05T14:25:33.684Z,26.33
2023-05-05T14:28:04.755Z,26.24
2023-05-05T14:30:35.034Z,26.19
2023-05-05T14:33:05.305Z,25.83
2023-05-05T14:35:35.732Z,25.90
2023-05-05T14:38:08.882Z,26.00
2023-05-05T14:40:39.152Z,26.02
2023-05-05T14:43:09.368Z,25.97
2023-05-05T14:45:39.772Z,26.14
2023-05-05T14:48:10.556Z,25.65
2023-05-05T14:50:42.751Z,25.87
2023-05-05T14:53:15.629Z,25.54
2023-05-05T14:55:45.887Z,25.87
2023-05-05T14:58:19.926Z,25.93
2023-05-05T15:00:50.247Z,25.74
2023-05-05T15:03:20.761Z,25.77
2023-05-05T15:05:51.341Z,25.62
2023-05-05T15:08:24.424Z,25.50
2023-05-05T15:10:54.819Z,25.58
2023-05-05T15:13:25.104Z,25.75
2023-05-05T15:15:55.547Z,25.63
2023-05-05T15:18:26.251Z,25.36
2023-05-05T15:21:01.004Z,25.49
2023-05-05T15:23:33.975Z,25.48
2023-05-05T15:26:04.692Z,25.46
2023-05-05T15:28:35.393Z,25.38
2023-05-05T15:31:06.537Z,25.43
2023-05-05T15:33:37.193Z,25.49
2023-05-05T15:36:08.031Z,25.32
2023-05-05T15:38:44.669Z,25.18
2023-05-05T15:41:14.931Z,25.01
2023-05-05T15:43:48.090Z,25.03
2023-05-05T15:46:21.463Z,25.15
2023-05-05T15:48:51.752Z,25.24
2023-05-05T15:51:22.413Z,25.24
2023-05-05T15:53:55.655Z,24.98
2023-05-05T15:56:27.569Z,25.09
2023-05-05T15:58:58.219Z,25.01
2023-05-05T16:01:28.671Z,25.04
2023-05-05T16:04:00.224Z,24.96
2023-05-05T16:06:30.730Z,24.94
2023-05-05T16:09:04.067Z,24.68
2023-05-05T16:11:37.461Z,24.68
2023-05-05T16:14:07.590Z,24.61
2023-05-05T16:16:37.933Z,24.64
2023-05-05T16:19:08.925Z,24.60
2023-05-05T16:21:39.843Z,24.35
2023-05-05T16:24:16.326Z,24.40
2023-05-05T16:26:46.902Z,24.23
2023-05-05T16:29:17.551Z,24.18
2023-05-05T16:31:47.939Z,24.15
2023-05-05T16:34:18.330Z,24.05
2023-05-05T16:36:49.019Z,23.94
2023-05-05T16:39:21.871Z,23.97
2023-05-05T16:41:52.622Z,23.95
2023-05-05T16:44:22.868Z,23.91
2023-05-05T16:46:56.704Z,23.86
2023-05-05T16:49:27.137Z,23.83
2023-05-05T16:51:57.530Z,23.82
2023-05-05T16:54:30.475Z,23.80
2023-05-05T16:57:00.704Z,23.62
2023-05-05T16:59:31.701Z,23.47
2023-05-05T17:02:02.251Z,23.30
2023-05-05T17:04:32.574Z,23.07
2023-05-05T17:07:02.776Z,23.18
2023-05-05T17:09:35.728Z,23.11
2023-05-05T17:12:06.945Z,22.97
2023-05-05T17:14:37.176Z,22.87
2023-05-05T17:17:07.435Z,22.78
2023-05-05T17:19:37.762Z,22.67
2023-05-05T17:22:08.251Z,22.53
2023-05-05T17:24:41.336Z,22.42
2023-05-05T17:27:11.673Z,22.30
2023-05-05T17:29:42.063Z,22.18
2023-05-05T17:32:12.549Z,22.07
2023-05-05T17:34:43.079Z,21.93
2023-05-05T17:37:13.320Z,21.80
2023-05-05T17:39:48.504Z,21.69
2023-05-05T17:42:23.108Z,21.55
2023-05-05T17:44:53.441Z,21.41
2023-05-05T17:47:24.463Z,21.27
2023-05-05T17:49:56.516Z,21.16
2023-05-05T17:52:27.256Z,21.01
2023-05-05T17:55:03.332Z,20.90
2023-05-05T17:57:33.687Z,20.80
2023-05-05T18:00:06.833Z,20.66
2023-05-05T18:02:38.510Z,20.57
2023-05-05T18:05:09.600Z,20.46
2023-05-05T18:07:40.706Z,20.35
2023-05-05T18:10:14.202Z,20.23
2023-05-05T18:12:45.765Z,20.11
2023-05-05T18:15:16.169Z,19.98
2023-05-05T18:17:51.568Z,19.83
2023-05-05T18:20:22.022Z,19.78
2023-05-05T18:22:52.464Z,19.66
2023-05-05T18:25:25.564Z,19.56
2023-05-05T18:27:55.843Z,19.46
2023-05-05T18:30:26.184Z,19.35
2023-05-05T18:32:56.559Z,19.26
2023-05-05T18:35:26.855Z,19.16
2023-05-05T18:37:57.262Z,19.06
2023-05-05T18:40:30.280Z,18.95
2023-05-05T18:43:00.812Z,18.83
2023-05-05T18:45:31.214Z,18.69
2023-05-05T18:48:02.457Z,18.57
2023-05-05T18:50:35.003Z,18.49
2023-05-05T18:53:05.332Z,18.41
2023-05-05T18:55:41.051Z,18.33
2023-05-05T18:58:13.724Z,18.27
2023-05-05T19:00:44.149Z,18.21
2023-05-05T19:03:14.742Z,18.09
2023-05-05T19:05:45.046Z,18.01
2023-05-05T19:08:15.316Z,17.93
2023-05-05T19:10:48.534Z,17.89
2023-05-05T19:13:18.907Z,17.85
2023-05-05T19:15:49.263Z,17.81
2023-05-05T19:18:19.724Z,17.75
2023-05-05T19:20:52.602Z,17.68
2023-05-05T19:23:23.140Z,17.63
2023-05-05T19:25:57.397Z,17.59
2023-05-05T19:28:27.678Z,17.57
2023-05-05T19:30:58.687Z,17.54
2023-05-05T19:33:29.084Z,17.53
2023-05-05T19:35:59.505Z,17.41
2023-05-05T19:38:29.829Z,17.32
2023-05-05T19:41:02.705Z,17.23
2023-05-05T19:43:32.985Z,17.12
2023-05-05T19:46:03.388Z,17.05
2023-05-05T19:48:34.040Z,16.98
2023-05-05T19:51:06.857Z,16.98
2023-05-05T19:53:40.309Z,16.96
2023-05-05T19:56:13.247Z,16.97
2023-05-05T19:58:57.706Z,16.92
2023-05-05T20:01:31.532Z,16.92
2023-05-05T20:04:03.775Z,16.88
2023-05-05T20:06:34.363Z,16.91
2023-05-05T20:09:10.875Z,16.93
2023-05-05T20:11:44.298Z,16.81
2023-05-05T20:14:15.623Z,16.90
2023-05-05T20:16:51.549Z,16.87
2023-05-05T20:19:24.232Z,16.85
2023-05-05T20:21:54.630Z,16.82
2023-05-05T20:24:24.956Z,16.76
2023-05-05T20:27:02.059Z,16.70
2023-05-05T20:29:32.276Z,16.65
2023-05-05T20:32:02.599Z,16.60
2023-05-05T20:34:33.058Z,16.57
2023-05-05T20:37:03.504Z,16.50
2023-05-05T20:39:33.836Z,16.42
2023-05-05T20:42:08.677Z,16.39
2023-05-05T20:44:46.109Z,16.35
2023-05-05T20:47:16.486Z,16.31
2023-05-05T20:49:49.607Z,16.27
2023-05-05T20:52:22.422Z,16.24
2023-05-05T20:54:55.614Z,16.20
2023-05-05T20:57:28.671Z,16.16
2023-05-05T20:59:59.002Z,16.11
2023-05-05T21:02:32.078Z,16.03
2023-05-05T21:05:03.166Z,16.03
2023-05-05T21:07:38.365Z,15.97
2023-05-05T21:10:10.869Z,15.96
2023-05-05T21:12:44.582Z,15.93
2023-05-05T21:15:16.942Z,15.87
2023-05-05T21:17:48.743Z,15.81
2023-05-05T21:20:19.133Z,15.78
2023-05-05T21:22:49.697Z,15.71
2023-05-05T21:25:23.855Z,15.68
2023-05-05T21:27:57.027Z,15.62
2023-05-05T21:30:27.535Z,15.57
2023-05-05T21:32:57.904Z,15.56
2023-05-05T21:35:31.350Z,15.50
2023-05-05T21:38:04.646Z,15.45
2023-05-05T21:40:52.114Z,15.48
2023-05-05T21:43:25.311Z,15.52
2023-05-05T21:46:01.528Z,15.48
2023-05-05T21:48:33.629Z,15.47
2023-05-05T21:51:04.111Z,15.42
2023-05-05T21:53:34.899Z,15.40
2023-05-05T21:56:05.628Z,15.34
2023-05-05T21:58:41.500Z,15.30
2023-05-05T22:01:11.793Z,15.27
2023-05-05T22:03:43.821Z,15.22
2023-05-05T22:06:14.996Z,15.19
2023-05-05T22:08:45.444Z,15.18
2023-05-05T22:11:19.324Z,15.13
2023-05-05T22:13:52.071Z,15.13
2023-05-05T22:16:22.411Z,15.09
2023-05-05T22:18:55.509Z,15.06
2023-05-05T22:21:27.757Z,15.00
2023-05-05T22:23:58.315Z,15.00
2023-05-05T22:26:28.652Z,14.93
2023-05-05T22:29:01.740Z,14.87
2023-05-05T22:31:32.138Z,14.85
2023-05-05T22:34:02.613Z,14.80
2023-05-05T22:36:32.925Z,14.79
2023-05-05T22:39:05.229Z,14.76
2023-05-05T22:41:38.751Z,14.74
2023-05-05T22:44:12.161Z,14.72
2023-05-05T22:46:43.501Z,14.70
2023-05-05T22:49:16.205Z,14.66
2023-05-05T22:51:48.609Z,14.61
2023-05-05T22:54:21.774Z,14.62
2023-05-05T22:56:53.245Z,14.59
2023-05-05T22:59:26.377Z,14.58
2023-05-05T23:01:56.711Z,14.54
2023-05-05T23:04:27.443Z,14.52
2023-05-05T23:06:57.813Z,14.47
2023-05-05T23:09:28.218Z,14.47
2023-05-05T23:11:58.448Z,14.47
2023-05-05T23:14:34.264Z,14.43
2023-05-05T23:17:04.608Z,14.40
2023-05-05T23:19:35.217Z,14.38
2023-05-05T23:22:07.077Z,14.38
2023-05-05T23:24:38.588Z,14.36
2023-05-05T23:27:11.937Z,14.33
2023-05-05T23:29:44.939Z,14.32
2023-05-05T23:32:16.035Z,14.24
2023-05-05T23:34:46.498Z,14.24
2023-05-05T23:37:17.246Z,14.22
2023-05-05T23:39:47.582Z,14.25
2023-05-05T23:42:18.981Z,14.20
2023-05-05T23:44:53.042Z,14.22
2023-05-05T23:47:23.842Z,14.17
2023-05-05T23:49:54.299Z,14.11
2023-05-05T23:52:25.165Z,14.08
2023-05-05T23:54:55.591Z,14.06
2023-05-05T23:57:25.805Z,14.01
